createdAt,value
2018-06-24T00:02:06.073Z,79.58
2018-06-24T00:04:34.595Z,79.16
2018-06-24T00:07:03.069Z,78.10
2018-06-24T00:09:31.627Z,77.99
2018-06-24T00:12:00.109Z,77.18
2018-06-24T00:14:28.586Z,76.36
2018-06-24T00:16:57.075Z,76.26
2018-06-24T00:19:25.541Z,76.65
2018-06-24T00:21:54.082Z,76.47
2018-06-24T00:24:22.558Z,76.07
2018-06-24T00:26:51.173Z,76.30
2018-06-24T00:29:19.667Z,76.01
2018-06-24T00:31:48.157Z,76.86
2018-06-24T00:34:16.641Z,76.53
2018-06-24T00:36:45.209Z,77.51
2018-06-24T00:39:13.685Z,77.18
2018-06-24T00:41:42.193Z,77.80
2018-06-24T00:44:10.704Z,78.16
2018-06-24T00:46:39.221Z,78.51
2018-06-24T00:49:07.706Z,79.34
2018-06-24T00:51:36.237Z,79.45
2018-06-24T00:54:04.866Z,79.71
2018-06-24T00:56:33.810Z,79.55
2018-06-24T00:59:02.279Z,79.66
2018-06-24T01:01:30.789Z,79.08
2018-06-24T01:03:59.265Z,78.02
2018-06-24T01:06:27.895Z,78.63
2018-06-24T01:08:56.382Z,79.36
2018-06-24T01:11:24.892Z,79.02
2018-06-24T01:13:53.390Z,77.82
2018-06-24T01:16:21.921Z,77.34
2018-06-24T01:18:50.399Z,77.93
2018-06-24T01:21:18.917Z,78.54
2018-06-24T01:23:47.723Z,77.97
2018-06-24T01:26:16.201Z,77.52
2018-06-24T01:28:44.686Z,78.57
2018-06-24T01:31:13.211Z,79.19
2018-06-24T01:33:41.747Z,79.91
2018-06-24T01:36:10.361Z,78.46
2018-06-24T01:38:38.853Z,78.85
2018-06-24T01:41:07.369Z,79.25
2018-06-24T01:43:35.832Z,79.81
2018-06-24T01:46:04.407Z,80.29
2018-06-24T01:48:33.285Z,79.97
2018-06-24T01:51:01.780Z,80.36
2018-06-24T01:53:30.249Z,80.39
2018-06-24T01:55:58.905Z,78.94
2018-06-24T01:58:27.349Z,78.78
2018-06-24T02:00:55.819Z,78.46
2018-06-24T02:03:24.705Z,79.13
2018-06-24T02:05:53.169Z,78.94
2018-06-24T02:08:21.629Z,78.26
2018-06-24T02:10:50.113Z,78.81
2018-06-24T02:13:18.606Z,78.45
2018-06-24T02:15:47.117Z,79.47
2018-06-24T02:18:15.586Z,79.23
2018-06-24T02:20:44.203Z,78.88
2018-06-24T02:23:13.173Z,78.56
2018-06-24T02:25:41.645Z,78.55
2018-06-24T02:28:10.112Z,78.41
2018-06-24T02:30:38.607Z,78.80
2018-06-24T02:33:07.143Z,78.85
2018-06-24T02:35:35.634Z,78.56
2018-06-24T02:38:04.094Z,79.58
2018-06-24T02:40:32.665Z,79.00
2018-06-24T02:43:01.173Z,79.49
2018-06-24T02:45:29.636Z,79.61
2018-06-24T02:47:58.138Z,80.16
2018-06-24T02:50:26.732Z,79.94
2018-06-24T02:52:55.360Z,80.07
2018-06-24T02:55:23.832Z,79.80
2018-06-24T02:57:52.298Z,80.77
2018-06-24T03:00:20.877Z,80.81
2018-06-24T03:02:49.375Z,81.19
2018-06-24T03:05:17.837Z,81.31
2018-06-24T03:07:46.697Z,80.89
2018-06-24T03:10:15.181Z,80.41
2018-06-24T03:12:43.645Z,80.66
2018-06-24T03:15:12.159Z,80.95
2018-06-24T03:17:40.638Z,80.67
2018-06-24T03:20:09.109Z,79.90
2018-06-24T03:22:37.593Z,80.35
2018-06-24T03:25:06.074Z,80.78
2018-06-24T03:27:34.594Z,80.30
2018-06-24T03:30:03.089Z,81.25
2018-06-24T03:32:31.553Z,81.38
2018-06-24T03:35:00.573Z,82.06
2018-06-24T03:37:29.053Z,81.71
2018-06-24T03:39:57.669Z,82.23
2018-06-24T03:42:26.224Z,82.31
2018-06-24T03:44:54.682Z,82.34
2018-06-24T03:47:23.590Z,82.07
2018-06-24T03:49:52.045Z,82.18
2018-06-24T03:52:20.511Z,82.59
2018-06-24T03:54:49.080Z,82.88
2018-06-24T03:57:17.655Z,82.31
2018-06-24T03:59:46.158Z,82.56
2018-06-24T04:02:14.690Z,82.39
2018-06-24T04:04:43.213Z,82.61
2018-06-24T04:07:11.859Z,81.87
2018-06-24T04:09:40.449Z,81.76
2018-06-24T04:12:08.928Z,81.78
2018-06-24T04:14:37.394Z,80.94
2018-06-24T04:17:05.943Z,80.95
2018-06-24T04:19:34.462Z,81.14
2018-06-24T04:22:02.944Z,80.09
2018-06-24T04:24:31.547Z,79.62
2018-06-24T04:27:00.044Z,79.67
2018-06-24T04:29:29.540Z,78.93
2018-06-24T04:31:58.124Z,79.24
2018-06-24T04:34:26.593Z,79.08
2018-06-24T04:36:55.121Z,79.72
2018-06-24T04:39:23.621Z,80.28
2018-06-24T04:41:52.113Z,80.06
2018-06-24T04:44:20.637Z,79.46
2018-06-24T04:46:49.109Z,78.49
2018-06-24T04:49:19.626Z,77.78
2018-06-24T04:51:48.121Z,78.16
2018-06-24T04:54:16.578Z,78.27
2018-06-24T04:56:46.079Z,79.22
2018-06-24T04:59:14.878Z,79.93
2018-06-24T05:01:43.353Z,77.52
2018-06-24T05:04:12.303Z,76.44
2018-06-24T05:06:40.792Z,77.49
2018-06-24T05:09:10.954Z,78.16
2018-06-24T05:11:39.510Z,78.12
2018-06-24T05:14:07.996Z,76.20
2018-06-24T05:16:36.608Z,77.68
2018-06-24T05:19:05.173Z,78.26
2018-06-24T05:21:33.811Z,77.52
2018-06-24T05:24:02.479Z,76.68
2018-06-24T05:26:30.941Z,76.17
2018-06-24T05:28:59.433Z,74.77
2018-06-24T05:31:27.925Z,77.35
2018-06-24T05:33:56.475Z,75.36
2018-06-24T05:36:25.253Z,75.07
2018-06-24T05:38:53.739Z,74.01
2018-06-24T05:41:22.510Z,74.67
2018-06-24T05:43:51.080Z,72.33
2018-06-24T05:46:19.778Z,71.54
2018-06-24T05:48:48.276Z,72.41
2018-06-24T05:51:16.787Z,71.82
2018-06-24T05:53:45.266Z,72.72
2018-06-24T05:56:13.741Z,73.73
2018-06-24T05:58:42.197Z,74.33
2018-06-24T06:01:10.827Z,76.64
2018-06-24T06:03:39.334Z,75.54
2018-06-24T06:06:07.829Z,76.04
2018-06-24T06:08:36.362Z,75.61
2018-06-24T06:11:04.894Z,74.53
2018-06-24T06:13:33.536Z,74.03
2018-06-24T06:16:02.056Z,74.86
2018-06-24T06:18:30.563Z,74.22
2018-06-24T06:20:59.093Z,72.98
2018-06-24T06:23:27.697Z,72.71
2018-06-24T06:25:56.205Z,72.74
2018-06-24T06:28:24.719Z,72.36
2018-06-24T06:30:53.630Z,71.77
2018-06-24T06:33:22.103Z,71.67
2018-06-24T06:35:50.598Z,72.61
2018-06-24T06:38:19.226Z,72.83
2018-06-24T06:40:47.721Z,70.91
2018-06-24T06:43:16.193Z,71.20
2018-06-24T06:45:44.869Z,71.19
2018-06-24T06:48:13.233Z,70.51
2018-06-24T06:50:41.729Z,71.40
2018-06-24T06:53:10.193Z,69.59
2018-06-24T06:55:39.098Z,69.42
2018-06-24T06:58:07.590Z,69.32
2018-06-24T07:00:36.125Z,69.15
2018-06-24T07:03:05.316Z,68.96
2018-06-24T07:05:33.778Z,68.26
2018-06-24T07:08:03.620Z,69.03
2018-06-24T07:10:32.230Z,68.52
2018-06-24T07:13:02.407Z,66.60
2018-06-24T07:15:30.849Z,67.31
2018-06-24T07:17:59.557Z,67.61
2018-06-24T07:20:28.069Z,68.23
2018-06-24T07:22:56.557Z,66.84
2018-06-24T07:25:25.066Z,68.16
2018-06-24T07:27:53.543Z,69.05
2018-06-24T07:30:22.017Z,68.72
2018-06-24T07:32:50.482Z,68.90
2018-06-24T07:35:18.993Z,70.01
2018-06-24T07:37:47.699Z,68.71
2018-06-24T07:40:16.202Z,69.13
2018-06-24T07:42:44.677Z,70.85
2018-06-24T07:45:13.133Z,69.52
2018-06-24T07:47:41.641Z,71.12
2018-06-24T07:50:10.148Z,69.87
2018-06-24T07:52:39.021Z,71.80
2018-06-24T07:55:07.497Z,71.47
2018-06-24T07:57:36.020Z,72.40
2018-06-24T08:00:05.006Z,72.76
2018-06-24T08:02:33.492Z,71.56
2018-06-24T08:05:01.965Z,71.55
2018-06-24T08:07:30.538Z,70.63
2018-06-24T08:09:58.991Z,71.64
2018-06-24T08:12:27.457Z,70.50
2018-06-24T08:14:56.027Z,71.36
2018-06-24T08:17:24.551Z,72.08
2018-06-24T08:19:53.031Z,70.38
2018-06-24T08:22:21.513Z,69.32
2018-06-24T08:24:49.957Z,69.89
2018-06-24T08:27:18.448Z,71.24
2018-06-24T08:29:46.955Z,71.14
2018-06-24T08:32:15.574Z,70.25
2018-06-24T08:34:44.049Z,69.61
2018-06-24T08:37:13.049Z,70.02
2018-06-24T08:39:41.529Z,69.96
2018-06-24T08:42:10.110Z,71.81
2018-06-24T08:44:38.606Z,71.43
2018-06-24T08:47:07.155Z,72.25
2018-06-24T08:49:35.649Z,72.00
2018-06-24T08:52:04.173Z,71.68
2018-06-24T08:54:32.675Z,72.42
2018-06-24T08:57:01.157Z,71.94
2018-06-24T08:59:29.677Z,72.53
2018-06-24T09:01:58.202Z,70.83
2018-06-24T09:04:26.665Z,68.85
2018-06-24T09:06:55.185Z,70.21
2018-06-24T09:09:23.660Z,69.06
2018-06-24T09:11:52.144Z,71.33
2018-06-24T09:14:20.641Z,71.21
2018-06-24T09:16:49.137Z,71.36
2018-06-24T09:19:17.722Z,70.30
2018-06-24T09:21:46.831Z,69.34
2018-06-24T09:24:15.306Z,71.61
2018-06-24T09:26:43.857Z,71.88
2018-06-24T09:29:12.327Z,69.77
2018-06-24T09:31:40.835Z,67.30
2018-06-24T09:34:09.429Z,68.95
2018-06-24T09:36:37.919Z,70.31
2018-06-24T09:39:09.486Z,71.68
2018-06-24T09:41:37.953Z,72.63
2018-06-24T09:44:06.729Z,73.07
2018-06-24T09:46:35.938Z,74.70
2018-06-24T09:49:04.446Z,76.40
2018-06-24T09:51:33.257Z,74.87
2018-06-24T09:54:01.790Z,73.97
2018-06-24T09:56:30.350Z,74.14
2018-06-24T09:58:58.849Z,74.77
2018-06-24T10:01:27.377Z,75.69
2018-06-24T10:03:56.130Z,77.05
2018-06-24T10:06:24.745Z,77.34
2018-06-24T10:08:53.264Z,75.52
2018-06-24T10:11:21.826Z,75.25
2018-06-24T10:13:50.425Z,75.88
2018-06-24T10:16:18.897Z,78.48
2018-06-24T10:18:47.374Z,77.78
2018-06-24T10:21:15.881Z,76.09
2018-06-24T10:23:44.358Z,75.79
2018-06-24T10:26:12.801Z,76.65
2018-06-24T10:28:41.302Z,79.24
2018-06-24T10:31:09.799Z,79.63
2018-06-24T10:33:38.257Z,78.34
2018-06-24T10:36:06.870Z,78.38
2018-06-24T10:38:35.356Z,75.25
2018-06-24T10:41:03.892Z,75.73
2018-06-24T10:43:32.363Z,71.62
2018-06-24T10:46:00.846Z,73.65
2018-06-24T10:48:29.321Z,72.19
2018-06-24T10:50:57.785Z,71.87
2018-06-24T10:53:26.270Z,72.02
2018-06-24T10:55:54.811Z,72.51
2018-06-24T10:58:23.308Z,75.20
2018-06-24T11:00:51.786Z,74.67
2018-06-24T11:03:20.300Z,75.54
2018-06-24T11:05:48.814Z,75.39
2018-06-24T11:08:17.327Z,73.36
2018-06-24T11:10:45.793Z,77.98
2018-06-24T11:13:14.645Z,74.29
2018-06-24T11:15:43.109Z,73.81
2018-06-24T11:18:11.609Z,72.55
2018-06-24T11:20:40.117Z,71.86
2018-06-24T11:23:08.668Z,69.14
2018-06-24T11:25:37.166Z,73.61
2018-06-24T11:28:06.592Z,71.05
2018-06-24T11:30:35.093Z,73.36
2018-06-24T11:33:03.577Z,72.89
2018-06-24T11:35:32.099Z,70.07
2018-06-24T11:38:00.573Z,71.96
2018-06-24T11:40:29.621Z,72.67
2018-06-24T11:42:58.088Z,73.14
2018-06-24T11:45:26.553Z,71.32
2018-06-24T11:47:55.172Z,72.76
2018-06-24T11:50:23.647Z,72.36
2018-06-24T11:52:52.121Z,71.33
2018-06-24T11:55:20.641Z,72.21
2018-06-24T11:57:49.172Z,72.62
2018-06-24T12:00:17.665Z,72.50
2018-06-24T12:02:46.153Z,71.77
2018-06-24T12:05:14.669Z,70.99
2018-06-24T12:07:43.168Z,70.41
2018-06-24T12:10:11.706Z,68.32
2018-06-24T12:12:40.197Z,68.74
2018-06-24T12:15:08.710Z,70.57
2018-06-24T12:17:37.210Z,68.43
2018-06-24T12:20:05.974Z,71.13
2018-06-24T12:22:34.437Z,69.96
2018-06-24T12:25:03.040Z,67.50
2018-06-24T12:27:31.953Z,68.51
2018-06-24T12:30:00.405Z,68.80
2018-06-24T12:32:28.961Z,68.76
2018-06-24T12:34:57.443Z,69.60
2018-06-24T12:37:25.944Z,70.78
2018-06-24T12:39:54.438Z,70.88
2018-06-24T12:42:22.921Z,71.11
2018-06-24T12:44:51.446Z,69.93
2018-06-24T12:47:19.894Z,69.82
2018-06-24T12:49:48.556Z,70.72
2018-06-24T12:52:17.070Z,71.77
2018-06-24T12:54:45.622Z,71.82
2018-06-24T12:57:14.190Z,71.91
2018-06-24T12:59:42.802Z,70.92
2018-06-24T13:02:11.179Z,72.62
2018-06-24T13:04:40.353Z,70.36
2018-06-24T13:07:09.118Z,72.27
2018-06-24T13:09:37.575Z,72.59
2018-06-24T13:12:06.151Z,72.72
2018-06-24T13:14:34.650Z,73.21
2018-06-24T13:17:03.210Z,73.82
2018-06-24T13:19:31.762Z,73.66
2018-06-24T13:22:00.537Z,74.49
2018-06-24T13:24:29.030Z,76.68
2018-06-24T13:26:57.550Z,78.54
2018-06-24T13:29:26.027Z,79.27
2018-06-24T13:31:54.603Z,78.54
2018-06-24T13:34:23.091Z,80.55
2018-06-24T13:36:51.586Z,81.42
2018-06-24T13:39:20.053Z,82.28
2018-06-24T13:41:48.541Z,82.48
2018-06-24T13:44:17.451Z,83.31
2018-06-24T13:46:45.914Z,81.05
2018-06-24T13:49:14.425Z,81.05
2018-06-24T13:51:42.988Z,81.19
2018-06-24T13:54:11.720Z,79.14
2018-06-24T13:56:40.229Z,81.83
2018-06-24T13:59:08.691Z,81.92
2018-06-24T14:01:37.293Z,82.14
2018-06-24T14:04:06.411Z,84.37
2018-06-24T14:06:34.895Z,85.32
2018-06-24T14:09:03.549Z,85.35
2018-06-24T14:11:32.038Z,85.78
2018-06-24T14:14:00.608Z,85.79
2018-06-24T14:16:29.085Z,85.88
2018-06-24T14:18:57.588Z,86.62
2018-06-24T14:21:26.054Z,85.07
2018-06-24T14:23:54.901Z,85.35
2018-06-24T14:26:23.438Z,83.64
2018-06-24T14:28:51.932Z,82.34
2018-06-24T14:31:20.398Z,81.86
2018-06-24T14:33:48.862Z,83.09
2018-06-24T14:36:17.413Z,83.97
2018-06-24T14:38:45.864Z,83.82
2018-06-24T14:41:14.722Z,83.84
2018-06-24T14:43:43.258Z,83.57
2018-06-24T14:46:11.747Z,82.65
2018-06-24T14:48:40.232Z,83.08
2018-06-24T14:51:08.693Z,83.13
2018-06-24T14:53:37.169Z,84.07
2018-06-24T14:56:05.725Z,85.57
2018-06-24T14:58:34.201Z,85.22
2018-06-24T15:01:02.824Z,85.12
2018-06-24T15:03:31.433Z,85.02
2018-06-24T15:05:59.950Z,85.80
2018-06-24T15:08:28.421Z,85.52
2018-06-24T15:10:57.122Z,85.24
2018-06-24T15:13:25.742Z,84.35
2018-06-24T15:15:54.227Z,83.66
2018-06-24T15:18:23.017Z,83.40
2018-06-24T15:20:51.533Z,84.56
2018-06-24T15:23:20.052Z,83.97
2018-06-24T15:25:48.581Z,83.63
2018-06-24T15:28:17.070Z,82.87
2018-06-24T15:30:46.412Z,81.58
2018-06-24T15:33:15.345Z,81.42
2018-06-24T15:35:43.809Z,81.24
2018-06-24T15:38:12.313Z,80.14
2018-06-24T15:40:40.998Z,79.31
2018-06-24T15:43:09.505Z,76.42
2018-06-24T15:45:38.033Z,75.87
2018-06-24T15:48:06.524Z,80.11
2018-06-24T15:50:35.170Z,77.18
2018-06-24T15:53:03.664Z,76.48
2018-06-24T15:55:32.329Z,78.81
2018-06-24T15:58:00.889Z,77.37
2018-06-24T16:00:29.379Z,78.53
2018-06-24T16:02:57.861Z,79.05
2018-06-24T16:05:26.872Z,79.98
2018-06-24T16:07:56.433Z,79.03
2018-06-24T16:10:24.903Z,80.21
2018-06-24T16:12:53.465Z,76.73
2018-06-24T16:15:21.932Z,75.16
2018-06-24T16:17:50.405Z,73.96
2018-06-24T16:20:19.035Z,73.62
2018-06-24T16:22:47.690Z,75.69
2018-06-24T16:25:16.193Z,76.13
2018-06-24T16:27:44.770Z,77.35
2018-06-24T16:30:13.295Z,80.86
2018-06-24T16:32:41.890Z,83.51
2018-06-24T16:35:10.422Z,83.92
2018-06-24T16:37:38.898Z,84.54
2018-06-24T16:40:07.490Z,84.76
2018-06-24T16:42:35.991Z,86.13
2018-06-24T16:45:04.637Z,86.53
2018-06-24T16:47:33.128Z,86.56
2018-06-24T16:50:01.697Z,86.78
2018-06-24T16:52:30.114Z,86.45
2018-06-24T16:54:58.690Z,85.99
2018-06-24T16:57:27.174Z,85.59
2018-06-24T16:59:56.117Z,85.59
2018-06-24T17:02:24.595Z,85.69
2018-06-24T17:04:53.072Z,86.30
2018-06-24T17:07:21.591Z,85.71
2018-06-24T17:09:50.078Z,86.58
2018-06-24T17:12:18.567Z,86.46
2018-06-24T17:14:47.042Z,86.38
2018-06-24T17:17:15.509Z,85.50
2018-06-24T17:19:44.084Z,85.57
2018-06-24T17:22:12.530Z,85.34
2018-06-24T17:24:41.060Z,85.64
2018-06-24T17:27:09.598Z,85.82
2018-06-24T17:29:38.235Z,85.58
2018-06-24T17:32:06.820Z,85.46
2018-06-24T17:34:35.774Z,85.49
2018-06-24T17:37:04.283Z,85.89
2018-06-24T17:39:33.186Z,86.04
2018-06-24T17:42:01.277Z,86.70
2018-06-24T17:44:29.789Z,88.69
2018-06-24T17:46:58.345Z,89.45
2018-06-24T17:49:26.972Z,89.33
2018-06-24T17:51:55.529Z,89.58
2018-06-24T17:54:24.078Z,89.87
2018-06-24T17:56:52.714Z,90.12
2018-06-24T17:59:21.262Z,90.19
2018-06-24T18:01:49.765Z,90.13
2018-06-24T18:04:18.766Z,90.08
2018-06-24T18:06:47.244Z,89.83
2018-06-24T18:09:15.759Z,89.90
2018-06-24T18:11:44.449Z,89.47
2018-06-24T18:14:12.930Z,89.54
2018-06-24T18:16:41.426Z,89.77
2018-06-24T18:19:09.904Z,89.68
2018-06-24T18:21:38.493Z,89.55
2018-06-24T18:24:06.968Z,89.50
2018-06-24T18:26:35.530Z,89.72
2018-06-24T18:29:04.144Z,89.38
2018-06-24T18:31:32.650Z,89.26
2018-06-24T18:34:01.383Z,89.64
2018-06-24T18:36:29.968Z,89.70
2018-06-24T18:38:58.471Z,89.17
2018-06-24T18:41:26.968Z,89.41
2018-06-24T18:43:55.476Z,89.59
2018-06-24T18:46:24.197Z,89.53
2018-06-24T18:48:52.674Z,88.92
2018-06-24T18:51:21.263Z,88.65
2018-06-24T18:53:49.782Z,88.72
2018-06-24T18:56:18.393Z,89.18
2018-06-24T18:58:46.910Z,89.08
2018-06-24T19:01:15.420Z,88.64
2018-06-24T19:03:44.053Z,89.14
2018-06-24T19:06:12.569Z,89.49
2018-06-24T19:08:41.205Z,89.40
2018-06-24T19:11:10.054Z,89.42
2018-06-24T19:13:38.673Z,89.72
2018-06-24T19:16:07.253Z,90.19
2018-06-24T19:18:36.303Z,90.16
2018-06-24T19:21:04.919Z,90.12
2018-06-24T19:23:33.579Z,90.58
2018-06-24T19:26:02.654Z,90.70
2018-06-24T19:28:31.226Z,90.87
2018-06-24T19:30:59.799Z,90.58
2018-06-24T19:33:28.323Z,91.12
2018-06-24T19:35:56.806Z,91.23
2018-06-24T19:38:25.319Z,91.29
2018-06-24T19:40:53.802Z,91.19
2018-06-24T19:43:22.337Z,90.87
2018-06-24T19:45:50.881Z,90.91
2018-06-24T19:48:19.403Z,90.54
2018-06-24T19:50:47.924Z,90.76
2018-06-24T19:53:16.403Z,90.79
2018-06-24T19:55:44.885Z,91.04
2018-06-24T19:58:13.454Z,90.69
2018-06-24T20:00:41.950Z,90.87
2018-06-24T20:03:10.988Z,90.54
2018-06-24T20:05:39.577Z,90.98
2018-06-24T20:08:08.436Z,90.65
2018-06-24T20:10:36.903Z,90.92
2018-06-24T20:13:05.457Z,91.31
2018-06-24T20:15:33.961Z,91.15
2018-06-24T20:18:02.417Z,91.24
2018-06-24T20:20:30.893Z,91.64
2018-06-24T20:22:59.375Z,91.54
2018-06-24T20:25:27.905Z,91.64
2018-06-24T20:27:57.429Z,91.40
2018-06-24T20:30:25.932Z,91.54
2018-06-24T20:32:54.462Z,91.77
2018-06-24T20:35:22.946Z,91.97
2018-06-24T20:37:51.432Z,92.09
2018-06-24T20:40:19.901Z,91.68
2018-06-24T20:42:48.817Z,91.89
2018-06-24T20:45:17.294Z,92.13
2018-06-24T20:47:45.768Z,91.97
2018-06-24T20:50:14.434Z,92.26
2018-06-24T20:52:42.969Z,92.18
2018-06-24T20:55:11.479Z,92.35
2018-06-24T20:57:40.351Z,92.44
2018-06-24T21:00:09.098Z,92.19
2018-06-24T21:02:37.562Z,92.18
2018-06-24T21:05:06.546Z,92.48
2018-06-24T21:07:35.021Z,92.60
2018-06-24T21:10:03.601Z,92.38
2018-06-24T21:12:32.174Z,92.39
2018-06-24T21:15:00.966Z,92.42
2018-06-24T21:17:29.454Z,92.82
2018-06-24T21:19:57.921Z,92.58
2018-06-24T21:22:26.730Z,92.84
2018-06-24T21:24:55.223Z,92.94
2018-06-24T21:27:23.729Z,92.79
2018-06-24T21:29:52.219Z,92.99
2018-06-24T21:32:20.694Z,93.04
2018-06-24T21:34:49.205Z,93.24
2018-06-24T21:37:17.720Z,93.19
2018-06-24T21:39:46.206Z,93.66
2018-06-24T21:42:14.717Z,93.55
2018-06-24T21:44:43.184Z,93.71
2018-06-24T21:47:12.188Z,93.68
2018-06-24T21:49:40.674Z,93.68
2018-06-24T21:52:09.154Z,93.57
2018-06-24T21:54:37.692Z,93.66
2018-06-24T21:57:06.184Z,93.78
2018-06-24T21:59:34.820Z,93.90
2018-06-24T22:02:03.341Z,93.89
2018-06-24T22:04:31.857Z,93.75
2018-06-24T22:07:00.342Z,93.89
2018-06-24T22:09:28.814Z,93.64
2018-06-24T22:11:57.317Z,93.70
2018-06-24T22:14:25.810Z,93.84
2018-06-24T22:16:54.440Z,94.27
2018-06-24T22:19:22.929Z,93.88
2018-06-24T22:21:51.475Z,93.99
2018-06-24T22:24:19.921Z,94.38
2018-06-24T22:26:48.393Z,94.46
2018-06-24T22:29:17.014Z,94.25
2018-06-24T22:31:45.650Z,94.06
2018-06-24T22:34:14.149Z,94.41
2018-06-24T22:36:42.617Z,94.72
2018-06-24T22:39:12.306Z,94.52
2018-06-24T22:41:41.442Z,94.54
2018-06-24T22:44:09.910Z,94.33
2018-06-24T22:46:38.382Z,94.55
2018-06-24T22:49:07.294Z,94.55
2018-06-24T22:51:36.206Z,94.30
2018-06-24T22:54:05.242Z,94.43
2018-06-24T22:56:33.766Z,94.46
2018-06-24T22:59:13.506Z,94.46
2018-06-24T23:01:41.993Z,94.51
2018-06-24T23:04:10.494Z,94.71
2018-06-24T23:06:38.989Z,94.48
2018-06-24T23:09:08.833Z,94.86
2018-06-24T23:11:37.573Z,94.82
2018-06-24T23:14:06.168Z,94.61
2018-06-24T23:16:34.731Z,95.00
2018-06-24T23:19:03.227Z,95.00
2018-06-24T23:21:31.811Z,94.52
2018-06-24T23:24:00.337Z,94.70
2018-06-24T23:26:28.834Z,94.48
2018-06-24T23:28:58.098Z,94.83
2018-06-24T23:31:26.777Z,94.99
2018-06-24T23:33:55.518Z,94.94
2018-06-24T23:36:24.021Z,94.99
2018-06-24T23:38:52.505Z,94.99
2018-06-24T23:41:20.986Z,94.62
2018-06-24T23:43:49.461Z,94.71
2018-06-24T23:46:18.067Z,94.83
2018-06-24T23:48:46.576Z,94.84
2018-06-24T23:51:15.113Z,94.73
2018-06-24T23:53:43.961Z,95.12
2018-06-24T23:56:12.486Z,94.97
2018-06-24T23:58:40.963Z,94.86
